sensor_id;sensor_type;location;lat;lon;timestamp;P1;durP1;ratioP1;P2;durP2;ratioP2
19059;SDS011;9663;48.996;8.334;2024-03-02T00:02:14;6.82;;;3.47;;
19059;SDS011;9663;48.996;8.334;2024-03-02T00:04:39;7.35;;;3.50;;
19059;SDS011;9663;48.996;8.334;2024-03-02T00:07:06;5.97;;;3.30;;
19059;SDS011;9663;48.996;8.334;2024-03-02T00:09:32;8.45;;;3.97;;
19059;SDS011;9663;48.996;8.334;2024-03-02T00:11:59;7.70;;;3.92;;
19059;SDS011;9663;48.996;8.334;2024-03-02T00:14:25;6.90;;;3.95;;
19059;SDS011;9663;48.996;8.334;2024-03-02T00:16:55;6.60;;;3.65;;
19059;SDS011;9663;48.996;8.334;2024-03-02T00:19:21;7.13;;;3.97;;
19059;SDS011;9663;48.996;8.334;2024-03-02T00:21:47;6.18;;;3.58;;
19059;SDS011;9663;48.996;8.334;2024-03-02T00:24:31;6.90;;;3.85;;
19059;SDS011;9663;48.996;8.334;2024-03-02T00:26:59;6.55;;;3.78;;
19059;SDS011;9663;48.996;8.334;2024-03-02T00:29:28;6.60;;;3.55;;
19059;SDS011;9663;48.996;8.334;2024-03-02T00:31:54;6.68;;;3.72;;
19059;SDS011;9663;48.996;8.334;2024-03-02T00:34:20;6.35;;;3.40;;
19059;SDS011;9663;48.996;8.334;2024-03-02T00:36:47;6.53;;;3.45;;
19059;SDS011;9663;48.996;8.334;2024-03-02T00:39:14;6.03;;;3.50;;
19059;SDS011;9663;48.996;8.334;2024-03-02T00:41:42;6.13;;;3.42;;
19059;SDS011;9663;48.996;8.334;2024-03-02T00:44:12;5.85;;;3.20;;
19059;SDS011;9663;48.996;8.334;2024-03-02T00:46:40;6.03;;;3.22;;
19059;SDS011;9663;48.996;8.334;2024-03-02T00:51:46;5.97;;;3.22;;
19059;SDS011;9663;48.996;8.334;2024-03-02T00:54:21;6.72;;;3.83;;
19059;SDS011;9663;48.996;8.334;2024-03-02T00:56:51;6.00;;;3.30;;
19059;SDS011;9663;48.996;8.334;2024-03-02T00:59:21;5.43;;;2.97;;
19059;SDS011;9663;48.996;8.334;2024-03-02T01:01:48;5.72;;;3.22;;
19059;SDS011;9663;48.996;8.334;2024-03-02T01:04:14;5.53;;;3.00;;
19059;SDS011;9663;48.996;8.334;2024-03-02T01:06:42;6.97;;;3.00;;
19059;SDS011;9663;48.996;8.334;2024-03-02T01:09:08;7.00;;;2.85;;
19059;SDS011;9663;48.996;8.334;2024-03-02T01:11:34;4.97;;;2.58;;
19059;SDS011;9663;48.996;8.334;2024-03-02T01:13:59;5.63;;;3.08;;
19059;SDS011;9663;48.996;8.334;2024-03-02T01:16:25;4.93;;;2.60;;
19059;SDS011;9663;48.996;8.334;2024-03-02T01:18:51;4.72;;;2.47;;
19059;SDS011;9663;48.996;8.334;2024-03-02T01:21:16;6.03;;;2.78;;
19059;SDS011;9663;48.996;8.334;2024-03-02T01:23:42;4.93;;;2.50;;
19059;SDS011;9663;48.996;8.334;2024-03-02T01:26:08;6.10;;;3.33;;
19059;SDS011;9663;48.996;8.334;2024-03-02T01:28:34;7.03;;;3.63;;
19059;SDS011;9663;48.996;8.334;2024-03-02T01:31:00;5.57;;;2.75;;
19059;SDS011;9663;48.996;8.334;2024-03-02T01:33:27;5.18;;;2.67;;
19059;SDS011;9663;48.996;8.334;2024-03-02T01:35:52;5.38;;;2.80;;
19059;SDS011;9663;48.996;8.334;2024-03-02T01:38:18;7.13;;;2.72;;
19059;SDS011;9663;48.996;8.334;2024-03-02T01:40:44;5.07;;;2.60;;
19059;SDS011;9663;48.996;8.334;2024-03-02T01:43:10;4.80;;;2.42;;
19059;SDS011;9663;48.996;8.334;2024-03-02T01:45:36;5.18;;;2.58;;
19059;SDS011;9663;48.996;8.334;2024-03-02T01:48:03;4.43;;;2.35;;
19059;SDS011;9663;48.996;8.334;2024-03-02T01:50:31;5.07;;;2.33;;
19059;SDS011;9663;48.996;8.334;2024-03-02T01:52:58;5.45;;;2.40;;
19059;SDS011;9663;48.996;8.334;2024-03-02T01:55:25;5.50;;;2.55;;
19059;SDS011;9663;48.996;8.334;2024-03-02T01:57:52;4.82;;;2.30;;
19059;SDS011;9663;48.996;8.334;2024-03-02T02:00:22;4.95;;;2.20;;
19059;SDS011;9663;48.996;8.334;2024-03-02T02:02:50;5.65;;;2.55;;
19059;SDS011;9663;48.996;8.334;2024-03-02T02:05:16;4.40;;;2.20;;
19059;SDS011;9663;48.996;8.334;2024-03-02T02:07:42;5.00;;;2.55;;
19059;SDS011;9663;48.996;8.334;2024-03-02T02:10:09;4.50;;;2.20;;
19059;SDS011;9663;48.996;8.334;2024-03-02T02:12:36;4.93;;;2.03;;
19059;SDS011;9663;48.996;8.334;2024-03-02T02:15:04;4.60;;;2.10;;
19059;SDS011;9663;48.996;8.334;2024-03-02T02:17:46;4.07;;;1.98;;
19059;SDS011;9663;48.996;8.334;2024-03-02T02:20:12;4.93;;;2.20;;
19059;SDS011;9663;48.996;8.334;2024-03-02T02:22:38;4.10;;;1.83;;
19059;SDS011;9663;48.996;8.334;2024-03-02T02:25:04;5.05;;;2.28;;
19059;SDS011;9663;48.996;8.334;2024-03-02T02:27:30;4.22;;;2.00;;
19059;SDS011;9663;48.996;8.334;2024-03-02T02:29:56;5.55;;;2.40;;
19059;SDS011;9663;48.996;8.334;2024-03-02T02:32:22;4.45;;;2.05;;
19059;SDS011;9663;48.996;8.334;2024-03-02T02:34:51;5.43;;;2.55;;
19059;SDS011;9663;48.996;8.334;2024-03-02T02:37:17;4.57;;;2.38;;
19059;SDS011;9663;48.996;8.334;2024-03-02T02:39:43;4.13;;;2.20;;
19059;SDS011;9663;48.996;8.334;2024-03-02T02:42:11;4.60;;;2.47;;
19059;SDS011;9663;48.996;8.334;2024-03-02T02:44:37;5.30;;;2.10;;
19059;SDS011;9663;48.996;8.334;2024-03-02T02:47:02;4.30;;;2.15;;
19059;SDS011;9663;48.996;8.334;2024-03-02T02:49:28;4.47;;;2.10;;
19059;SDS011;9663;48.996;8.334;2024-03-02T02:51:54;4.90;;;2.40;;
19059;SDS011;9663;48.996;8.334;2024-03-02T02:54:19;4.82;;;2.00;;
19059;SDS011;9663;48.996;8.334;2024-03-02T02:56:45;3.70;;;1.60;;
19059;SDS011;9663;48.996;8.334;2024-03-02T02:59:11;4.30;;;2.17;;
19059;SDS011;9663;48.996;8.334;2024-03-02T03:01:37;3.90;;;1.95;;
19059;SDS011;9663;48.996;8.334;2024-03-02T03:04:02;4.68;;;2.25;;
19059;SDS011;9663;48.996;8.334;2024-03-02T03:06:28;4.30;;;1.88;;
19059;SDS011;9663;48.996;8.334;2024-03-02T03:08:53;4.07;;;1.90;;
19059;SDS011;9663;48.996;8.334;2024-03-02T03:11:19;4.60;;;2.00;;
19059;SDS011;9663;48.996;8.334;2024-03-02T03:13:45;3.75;;;1.73;;
19059;SDS011;9663;48.996;8.334;2024-03-02T03:16:10;4.10;;;1.98;;
19059;SDS011;9663;48.996;8.334;2024-03-02T03:18:36;3.92;;;1.73;;
19059;SDS011;9663;48.996;8.334;2024-03-02T03:21:03;5.07;;;1.85;;
19059;SDS011;9663;48.996;8.334;2024-03-02T03:23:29;3.95;;;1.70;;
19059;SDS011;9663;48.996;8.334;2024-03-02T03:25:54;3.90;;;1.80;;
19059;SDS011;9663;48.996;8.334;2024-03-02T03:28:20;4.03;;;1.90;;
19059;SDS011;9663;48.996;8.334;2024-03-02T03:30:45;4.20;;;1.90;;
19059;SDS011;9663;48.996;8.334;2024-03-02T03:33:11;4.07;;;1.77;;
19059;SDS011;9663;48.996;8.334;2024-03-02T03:35:37;5.18;;;1.63;;
19059;SDS011;9663;48.996;8.334;2024-03-02T03:38:02;5.18;;;1.95;;
19059;SDS011;9663;48.996;8.334;2024-03-02T03:40:28;4.85;;;2.15;;
19059;SDS011;9663;48.996;8.334;2024-03-02T03:42:54;4.32;;;2.03;;
19059;SDS011;9663;48.996;8.334;2024-03-02T03:45:21;3.80;;;1.92;;
19059;SDS011;9663;48.996;8.334;2024-03-02T03:47:47;4.43;;;1.90;;
19059;SDS011;9663;48.996;8.334;2024-03-02T03:50:13;3.63;;;1.60;;
19059;SDS011;9663;48.996;8.334;2024-03-02T03:52:38;4.65;;;1.98;;
19059;SDS011;9663;48.996;8.334;2024-03-02T03:55:04;4.43;;;1.92;;
19059;SDS011;9663;48.996;8.334;2024-03-02T03:57:30;4.38;;;1.60;;
19059;SDS011;9663;48.996;8.334;2024-03-02T03:59:56;4.10;;;1.90;;
19059;SDS011;9663;48.996;8.334;2024-03-02T04:02:21;4.00;;;1.95;;
19059;SDS011;9663;48.996;8.334;2024-03-02T04:04:47;3.97;;;1.80;;
19059;SDS011;9663;48.996;8.334;2024-03-02T04:07:13;4.45;;;1.58;;
19059;SDS011;9663;48.996;8.334;2024-03-02T04:09:38;5.32;;;2.20;;
19059;SDS011;9663;48.996;8.334;2024-03-02T04:12:04;4.97;;;1.90;;
19059;SDS011;9663;48.996;8.334;2024-03-02T04:14:30;5.00;;;2.40;;
19059;SDS011;9663;48.996;8.334;2024-03-02T04:16:55;6.57;;;2.63;;
19059;SDS011;9663;48.996;8.334;2024-03-02T04:19:21;6.78;;;3.10;;
19059;SDS011;9663;48.996;8.334;2024-03-02T04:21:47;5.05;;;2.40;;
19059;SDS011;9663;48.996;8.334;2024-03-02T04:24:12;5.07;;;2.30;;
19059;SDS011;9663;48.996;8.334;2024-03-02T04:26:38;4.50;;;2.28;;
19059;SDS011;9663;48.996;8.334;2024-03-02T04:29:03;5.20;;;2.00;;
19059;SDS011;9663;48.996;8.334;2024-03-02T04:31:29;4.70;;;2.13;;
19059;SDS011;9663;48.996;8.334;2024-03-02T04:33:55;4.35;;;2.13;;
19059;SDS011;9663;48.996;8.334;2024-03-02T04:36:20;4.78;;;2.17;;
19059;SDS011;9663;48.996;8.334;2024-03-02T04:38:46;4.13;;;2.00;;
19059;SDS011;9663;48.996;8.334;2024-03-02T04:41:12;4.03;;;1.95;;
19059;SDS011;9663;48.996;8.334;2024-03-02T04:43:38;4.15;;;2.03;;
19059;SDS011;9663;48.996;8.334;2024-03-02T04:46:04;4.25;;;1.75;;
19059;SDS011;9663;48.996;8.334;2024-03-02T04:48:31;3.45;;;1.73;;
19059;SDS011;9663;48.996;8.334;2024-03-02T04:50:58;4.75;;;2.25;;
19059;SDS011;9663;48.996;8.334;2024-03-02T04:53:23;3.72;;;1.55;;
19059;SDS011;9663;48.996;8.334;2024-03-02T04:55:49;3.92;;;1.85;;
19059;SDS011;9663;48.996;8.334;2024-03-02T04:58:35;3.80;;;1.83;;
19059;SDS011;9663;48.996;8.334;2024-03-02T05:01:00;3.70;;;1.70;;
19059;SDS011;9663;48.996;8.334;2024-03-02T05:03:26;4.60;;;1.90;;
19059;SDS011;9663;48.996;8.334;2024-03-02T05:05:51;5.72;;;1.80;;
19059;SDS011;9663;48.996;8.334;2024-03-02T05:08:17;4.43;;;1.98;;
19059;SDS011;9663;48.996;8.334;2024-03-02T05:10:43;3.83;;;1.65;;
19059;SDS011;9663;48.996;8.334;2024-03-02T05:13:08;3.75;;;1.63;;
19059;SDS011;9663;48.996;8.334;2024-03-02T05:15:34;4.10;;;2.00;;
19059;SDS011;9663;48.996;8.334;2024-03-02T05:18:00;4.40;;;2.03;;
19059;SDS011;9663;48.996;8.334;2024-03-02T05:20:27;4.30;;;2.00;;
19059;SDS011;9663;48.996;8.334;2024-03-02T05:22:53;3.88;;;1.73;;
19059;SDS011;9663;48.996;8.334;2024-03-02T05:25:19;4.75;;;1.90;;
19059;SDS011;9663;48.996;8.334;2024-03-02T05:27:44;4.15;;;1.98;;
19059;SDS011;9663;48.996;8.334;2024-03-02T05:30:11;4.50;;;1.90;;
19059;SDS011;9663;48.996;8.334;2024-03-02T05:32:37;4.18;;;1.77;;
19059;SDS011;9663;48.996;8.334;2024-03-02T05:35:02;4.55;;;2.03;;
19059;SDS011;9663;48.996;8.334;2024-03-02T05:37:30;4.40;;;1.83;;
19059;SDS011;9663;48.996;8.334;2024-03-02T05:39:55;3.47;;;1.50;;
19059;SDS011;9663;48.996;8.334;2024-03-02T05:42:21;3.80;;;1.60;;
19059;SDS011;9663;48.996;8.334;2024-03-02T05:44:47;4.50;;;1.73;;
19059;SDS011;9663;48.996;8.334;2024-03-02T05:47:12;4.00;;;1.52;;
19059;SDS011;9663;48.996;8.334;2024-03-02T05:49:38;4.20;;;1.85;;
19059;SDS011;9663;48.996;8.334;2024-03-02T05:52:04;4.13;;;1.75;;
19059;SDS011;9663;48.996;8.334;2024-03-02T05:54:30;3.97;;;1.67;;
19059;SDS011;9663;48.996;8.334;2024-03-02T05:56:55;4.40;;;1.70;;
19059;SDS011;9663;48.996;8.334;2024-03-02T05:59:21;4.00;;;1.70;;
19059;SDS011;9663;48.996;8.334;2024-03-02T06:01:47;3.75;;;1.60;;
19059;SDS011;9663;48.996;8.334;2024-03-02T06:04:15;3.08;;;1.40;;
19059;SDS011;9663;48.996;8.334;2024-03-02T06:06:41;3.80;;;1.75;;
19059;SDS011;9663;48.996;8.334;2024-03-02T06:09:07;4.15;;;1.80;;
19059;SDS011;9663;48.996;8.334;2024-03-02T06:11:34;4.63;;;2.00;;
19059;SDS011;9663;48.996;8.334;2024-03-02T06:14:01;4.57;;;1.73;;
19059;SDS011;9663;48.996;8.334;2024-03-02T06:16:27;3.65;;;1.45;;
19059;SDS011;9663;48.996;8.334;2024-03-02T06:18:53;4.40;;;1.70;;
19059;SDS011;9663;48.996;8.334;2024-03-02T06:21:19;3.45;;;1.40;;
19059;SDS011;9663;48.996;8.334;2024-03-02T06:23:45;3.30;;;1.45;;
19059;SDS011;9663;48.996;8.334;2024-03-02T06:26:11;3.28;;;1.38;;
19059;SDS011;9663;48.996;8.334;2024-03-02T06:28:37;4.35;;;1.90;;
19059;SDS011;9663;48.996;8.334;2024-03-02T06:31:03;4.43;;;1.95;;
19059;SDS011;9663;48.996;8.334;2024-03-02T06:33:29;3.60;;;1.48;;
19059;SDS011;9663;48.996;8.334;2024-03-02T06:35:55;3.80;;;1.67;;
19059;SDS011;9663;48.996;8.334;2024-03-02T06:38:20;4.00;;;1.70;;
19059;SDS011;9663;48.996;8.334;2024-03-02T06:40:46;4.35;;;1.83;;
19059;SDS011;9663;48.996;8.334;2024-03-02T06:43:12;3.80;;;1.70;;
19059;SDS011;9663;48.996;8.334;2024-03-02T06:45:37;4.78;;;1.88;;
19059;SDS011;9663;48.996;8.334;2024-03-02T06:48:03;4.78;;;2.08;;
19059;SDS011;9663;48.996;8.334;2024-03-02T06:50:29;3.65;;;1.50;;
19059;SDS011;9663;48.996;8.334;2024-03-02T06:52:55;4.28;;;1.73;;
19059;SDS011;9663;48.996;8.334;2024-03-02T06:55:23;4.32;;;1.63;;
19059;SDS011;9663;48.996;8.334;2024-03-02T06:57:52;4.22;;;1.55;;
19059;SDS011;9663;48.996;8.334;2024-03-02T07:00:18;4.20;;;1.50;;
19059;SDS011;9663;48.996;8.334;2024-03-02T07:02:45;3.70;;;1.58;;
19059;SDS011;9663;48.996;8.334;2024-03-02T07:05:11;3.50;;;1.45;;
19059;SDS011;9663;48.996;8.334;2024-03-02T07:07:38;3.45;;;1.40;;
19059;SDS011;9663;48.996;8.334;2024-03-02T07:10:04;4.47;;;1.23;;
19059;SDS011;9663;48.996;8.334;2024-03-02T07:12:32;3.63;;;1.45;;
19059;SDS011;9663;48.996;8.334;2024-03-02T07:14:58;3.20;;;1.30;;
19059;SDS011;9663;48.996;8.334;2024-03-02T07:17:32;4.75;;;1.40;;
19059;SDS011;9663;48.996;8.334;2024-03-02T07:19:59;5.38;;;1.33;;
19059;SDS011;9663;48.996;8.334;2024-03-02T07:22:24;3.35;;;1.35;;
19059;SDS011;9663;48.996;8.334;2024-03-02T07:24:50;3.50;;;1.30;;
19059;SDS011;9663;48.996;8.334;2024-03-02T07:27:16;3.22;;;1.38;;
19059;SDS011;9663;48.996;8.334;2024-03-02T07:29:42;4.90;;;1.55;;
19059;SDS011;9663;48.996;8.334;2024-03-02T07:32:09;3.58;;;1.50;;
19059;SDS011;9663;48.996;8.334;2024-03-02T07:34:35;3.97;;;1.63;;
19059;SDS011;9663;48.996;8.334;2024-03-02T07:37:02;3.25;;;1.40;;
19059;SDS011;9663;48.996;8.334;2024-03-02T07:39:29;3.40;;;1.45;;
19059;SDS011;9663;48.996;8.334;2024-03-02T07:41:55;3.78;;;1.55;;
19059;SDS011;9663;48.996;8.334;2024-03-02T07:44:21;3.72;;;1.52;;
19059;SDS011;9663;48.996;8.334;2024-03-02T07:46:48;3.90;;;1.38;;
19059;SDS011;9663;48.996;8.334;2024-03-02T07:49:17;3.78;;;1.40;;
19059;SDS011;9663;48.996;8.334;2024-03-02T07:51:44;3.70;;;1.40;;
19059;SDS011;9663;48.996;8.334;2024-03-02T07:54:10;3.78;;;1.58;;
19059;SDS011;9663;48.996;8.334;2024-03-02T07:56:36;3.60;;;1.50;;
19059;SDS011;9663;48.996;8.334;2024-03-02T07:59:02;4.18;;;1.40;;
19059;SDS011;9663;48.996;8.334;2024-03-02T08:01:29;3.65;;;1.40;;
19059;SDS011;9663;48.996;8.334;2024-03-02T08:03:57;4.10;;;1.60;;
19059;SDS011;9663;48.996;8.334;2024-03-02T08:06:24;3.90;;;1.73;;
19059;SDS011;9663;48.996;8.334;2024-03-02T08:08:59;3.88;;;1.30;;
19059;SDS011;9663;48.996;8.334;2024-03-02T08:11:26;3.65;;;1.60;;
19059;SDS011;9663;48.996;8.334;2024-03-02T08:13:52;3.80;;;1.75;;
19059;SDS011;9663;48.996;8.334;2024-03-02T08:16:20;2.83;;;1.35;;
19059;SDS011;9663;48.996;8.334;2024-03-02T08:18:48;3.42;;;1.50;;
19059;SDS011;9663;48.996;8.334;2024-03-02T08:21:14;3.10;;;1.33;;
19059;SDS011;9663;48.996;8.334;2024-03-02T08:23:42;3.15;;;1.48;;
19059;SDS011;9663;48.996;8.334;2024-03-02T08:26:08;3.83;;;1.55;;
19059;SDS011;9663;48.996;8.334;2024-03-02T08:28:35;3.40;;;1.60;;
19059;SDS011;9663;48.996;8.334;2024-03-02T08:31:07;3.20;;;1.40;;
19059;SDS011;9663;48.996;8.334;2024-03-02T08:33:34;3.67;;;1.33;;
19059;SDS011;9663;48.996;8.334;2024-03-02T08:36:00;3.80;;;1.67;;
19059;SDS011;9663;48.996;8.334;2024-03-02T08:38:26;4.15;;;1.75;;
19059;SDS011;9663;48.996;8.334;2024-03-02T08:40:52;3.80;;;1.90;;
19059;SDS011;9663;48.996;8.334;2024-03-02T08:43:18;4.22;;;1.98;;
19059;SDS011;9663;48.996;8.334;2024-03-02T08:45:44;3.90;;;1.77;;
19059;SDS011;9663;48.996;8.334;2024-03-02T08:48:10;3.83;;;1.63;;
19059;SDS011;9663;48.996;8.334;2024-03-02T08:50:36;3.83;;;1.90;;
19059;SDS011;9663;48.996;8.334;2024-03-02T08:53:03;4.53;;;1.70;;
19059;SDS011;9663;48.996;8.334;2024-03-02T08:55:29;3.47;;;1.63;;
19059;SDS011;9663;48.996;8.334;2024-03-02T08:57:55;3.63;;;1.73;;
19059;SDS011;9663;48.996;8.334;2024-03-02T09:00:21;3.50;;;1.42;;
19059;SDS011;9663;48.996;8.334;2024-03-02T09:02:47;4.30;;;1.85;;
19059;SDS011;9663;48.996;8.334;2024-03-02T09:05:13;3.78;;;1.50;;
19059;SDS011;9663;48.996;8.334;2024-03-02T09:07:39;3.65;;;1.55;;
19059;SDS011;9663;48.996;8.334;2024-03-02T09:10:05;3.30;;;1.40;;
19059;SDS011;9663;48.996;8.334;2024-03-02T09:12:32;3.38;;;1.35;;
19059;SDS011;9663;48.996;8.334;2024-03-02T09:14:59;3.33;;;1.40;;
19059;SDS011;9663;48.996;8.334;2024-03-02T09:17:26;3.60;;;1.42;;
19059;SDS011;9663;48.996;8.334;2024-03-02T09:19:52;2.80;;;1.20;;
19059;SDS011;9663;48.996;8.334;2024-03-02T09:22:18;3.50;;;1.50;;
19059;SDS011;9663;48.996;8.334;2024-03-02T09:24:44;4.80;;;1.25;;
19059;SDS011;9663;48.996;8.334;2024-03-02T09:27:10;3.22;;;1.30;;
19059;SDS011;9663;48.996;8.334;2024-03-02T09:29:36;3.65;;;1.52;;
19059;SDS011;9663;48.996;8.334;2024-03-02T09:32:02;3.50;;;1.50;;
19059;SDS011;9663;48.996;8.334;2024-03-02T09:34:28;3.47;;;1.63;;
19059;SDS011;9663;48.996;8.334;2024-03-02T09:36:54;3.90;;;1.60;;
19059;SDS011;9663;48.996;8.334;2024-03-02T09:39:19;3.20;;;1.27;;
19059;SDS011;9663;48.996;8.334;2024-03-02T09:41:45;3.58;;;1.65;;
19059;SDS011;9663;48.996;8.334;2024-03-02T09:44:13;3.17;;;1.05;;
19059;SDS011;9663;48.996;8.334;2024-03-02T09:46:39;3.65;;;1.58;;
19059;SDS011;9663;48.996;8.334;2024-03-02T09:49:05;5.50;;;1.40;;
19059;SDS011;9663;48.996;8.334;2024-03-02T09:51:31;3.20;;;1.30;;
19059;SDS011;9663;48.996;8.334;2024-03-02T09:53:57;3.80;;;1.20;;
19059;SDS011;9663;48.996;8.334;2024-03-02T09:56:26;3.00;;;1.33;;
19059;SDS011;9663;48.996;8.334;2024-03-02T09:58:51;4.68;;;1.52;;
19059;SDS011;9663;48.996;8.334;2024-03-02T10:01:17;2.67;;;1.10;;
19059;SDS011;9663;48.996;8.334;2024-03-02T10:03:44;3.03;;;1.25;;
19059;SDS011;9663;48.996;8.334;2024-03-02T10:06:23;2.95;;;1.40;;
19059;SDS011;9663;48.996;8.334;2024-03-02T10:08:51;3.35;;;1.50;;
19059;SDS011;9663;48.996;8.334;2024-03-02T10:14:05;3.33;;;1.38;;
19059;SDS011;9663;48.996;8.334;2024-03-02T10:16:33;3.17;;;1.20;;
19059;SDS011;9663;48.996;8.334;2024-03-02T10:19:22;3.00;;;1.27;;
19059;SDS011;9663;48.996;8.334;2024-03-02T10:21:51;3.15;;;1.38;;
19059;SDS011;9663;48.996;8.334;2024-03-02T10:24:19;3.60;;;1.55;;
19059;SDS011;9663;48.996;8.334;2024-03-02T10:26:47;3.15;;;1.40;;
19059;SDS011;9663;48.996;8.334;2024-03-02T10:29:14;3.60;;;1.38;;
19059;SDS011;9663;48.996;8.334;2024-03-02T10:31:41;4.20;;;1.40;;
19059;SDS011;9663;48.996;8.334;2024-03-02T10:34:10;3.22;;;1.20;;
19059;SDS011;9663;48.996;8.334;2024-03-02T10:36:40;4.15;;;1.30;;
19059;SDS011;9663;48.996;8.334;2024-03-02T10:39:07;2.72;;;1.17;;
19059;SDS011;9663;48.996;8.334;2024-03-02T10:41:35;3.33;;;1.40;;
19059;SDS011;9663;48.996;8.334;2024-03-02T10:44:03;3.33;;;1.40;;
19059;SDS011;9663;48.996;8.334;2024-03-02T10:46:35;2.80;;;1.33;;
19059;SDS011;9663;48.996;8.334;2024-03-02T10:49:03;4.07;;;1.50;;
19059;SDS011;9663;48.996;8.334;2024-03-02T10:51:31;3.28;;;1.38;;
19059;SDS011;9663;48.996;8.334;2024-03-02T10:54:01;2.78;;;1.10;;
19059;SDS011;9663;48.996;8.334;2024-03-02T10:56:32;2.60;;;1.10;;
19059;SDS011;9663;48.996;8.334;2024-03-02T10:59:06;2.35;;;1.00;;
19059;SDS011;9663;48.996;8.334;2024-03-02T11:01:49;2.20;;;1.08;;
19059;SDS011;9663;48.996;8.334;2024-03-02T11:04:18;2.60;;;1.10;;
19059;SDS011;9663;48.996;8.334;2024-03-02T11:06:50;3.35;;;1.20;;
19059;SDS011;9663;48.996;8.334;2024-03-02T11:09:21;2.80;;;1.00;;
19059;SDS011;9663;48.996;8.334;2024-03-02T11:12:02;2.28;;;1.00;;
19059;SDS011;9663;48.996;8.334;2024-03-02T11:14:32;2.90;;;1.13;;
19059;SDS011;9663;48.996;8.334;2024-03-02T11:17:00;3.15;;;1.10;;
19059;SDS011;9663;48.996;8.334;2024-03-02T11:19:28;3.03;;;1.10;;
19059;SDS011;9663;48.996;8.334;2024-03-02T11:21:56;2.40;;;0.95;;
19059;SDS011;9663;48.996;8.334;2024-03-02T11:26:58;2.08;;;0.90;;
19059;SDS011;9663;48.996;8.334;2024-03-02T11:32:01;2.67;;;1.00;;
19059;SDS011;9663;48.996;8.334;2024-03-02T11:34:29;2.30;;;1.00;;
19059;SDS011;9663;48.996;8.334;2024-03-02T11:36:57;1.95;;;0.85;;
19059;SDS011;9663;48.996;8.334;2024-03-02T11:39:24;2.08;;;0.82;;
19059;SDS011;9663;48.996;8.334;2024-03-02T11:41:55;2.05;;;0.90;;
19059;SDS011;9663;48.996;8.334;2024-03-02T11:44:25;2.28;;;0.90;;
19059;SDS011;9663;48.996;8.334;2024-03-02T11:46:53;1.45;;;0.60;;
19059;SDS011;9663;48.996;8.334;2024-03-02T11:49:40;1.92;;;0.82;;
19059;SDS011;9663;48.996;8.334;2024-03-02T11:52:13;2.47;;;0.70;;
19059;SDS011;9663;48.996;8.334;2024-03-02T11:54:46;1.73;;;0.68;;
19059;SDS011;9663;48.996;8.334;2024-03-02T11:57:17;2.15;;;0.70;;
19059;SDS011;9663;48.996;8.334;2024-03-02T11:59:44;1.52;;;0.70;;
19059;SDS011;9663;48.996;8.334;2024-03-02T12:02:18;1.75;;;0.70;;
19059;SDS011;9663;48.996;8.334;2024-03-02T12:04:46;1.10;;;0.60;;
19059;SDS011;9663;48.996;8.334;2024-03-02T12:07:18;2.35;;;0.82;;
19059;SDS011;9663;48.996;8.334;2024-03-02T12:09:48;2.17;;;0.90;;
19059;SDS011;9663;48.996;8.334;2024-03-02T12:12:24;2.30;;;0.85;;
19059;SDS011;9663;48.996;8.334;2024-03-02T12:14:51;1.33;;;0.60;;
19059;SDS011;9663;48.996;8.334;2024-03-02T12:17:22;2.50;;;0.80;;
19059;SDS011;9663;48.996;8.334;2024-03-02T12:19:48;1.50;;;0.70;;
19059;SDS011;9663;48.996;8.334;2024-03-02T12:22:14;1.38;;;0.60;;
19059;SDS011;9663;48.996;8.334;2024-03-02T12:24:40;1.77;;;0.60;;
19059;SDS011;9663;48.996;8.334;2024-03-02T12:27:07;1.63;;;0.60;;
19059;SDS011;9663;48.996;8.334;2024-03-02T12:29:33;1.52;;;0.68;;
19059;SDS011;9663;48.996;8.334;2024-03-02T12:31:59;1.88;;;0.70;;
19059;SDS011;9663;48.996;8.334;2024-03-02T12:34:27;1.63;;;0.60;;
19059;SDS011;9663;48.996;8.334;2024-03-02T12:36:53;1.58;;;0.65;;
19059;SDS011;9663;48.996;8.334;2024-03-02T12:39:19;1.15;;;0.60;;
19059;SDS011;9663;48.996;8.334;2024-03-02T12:41:46;2.00;;;0.80;;
19059;SDS011;9663;48.996;8.334;2024-03-02T12:44:12;1.13;;;0.60;;
19059;SDS011;9663;48.996;8.334;2024-03-02T12:46:38;1.60;;;0.60;;
19059;SDS011;9663;48.996;8.334;2024-03-02T12:49:10;1.73;;;0.60;;
19059;SDS011;9663;48.996;8.334;2024-03-02T12:51:38;1.65;;;0.70;;
19059;SDS011;9663;48.996;8.334;2024-03-02T12:54:06;1.65;;;0.65;;
19059;SDS011;9663;48.996;8.334;2024-03-02T12:56:33;1.40;;;0.60;;
19059;SDS011;9663;48.996;8.334;2024-03-02T12:59:00;1.77;;;0.73;;
19059;SDS011;9663;48.996;8.334;2024-03-02T13:01:26;0.90;;;0.50;;
19059;SDS011;9663;48.996;8.334;2024-03-02T13:03:53;1.25;;;0.65;;
19059;SDS011;9663;48.996;8.334;2024-03-02T13:06:22;1.20;;;0.60;;
19059;SDS011;9663;48.996;8.334;2024-03-02T13:08:49;1.48;;;0.60;;
19059;SDS011;9663;48.996;8.334;2024-03-02T13:11:15;2.45;;;0.98;;
19059;SDS011;9663;48.996;8.334;2024-03-02T13:13:42;1.85;;;0.70;;
19059;SDS011;9663;48.996;8.334;2024-03-02T13:16:11;1.45;;;0.70;;
19059;SDS011;9663;48.996;8.334;2024-03-02T13:18:40;1.35;;;0.60;;
19059;SDS011;9663;48.996;8.334;2024-03-02T13:21:07;2.53;;;0.65;;
19059;SDS011;9663;48.996;8.334;2024-03-02T13:23:33;1.25;;;0.60;;
19059;SDS011;9663;48.996;8.334;2024-03-02T13:25:59;1.35;;;0.70;;
19059;SDS011;9663;48.996;8.334;2024-03-02T13:28:26;3.15;;;1.40;;
19059;SDS011;9663;48.996;8.334;2024-03-02T13:30:51;1.85;;;0.70;;
19059;SDS011;9663;48.996;8.334;2024-03-02T13:33:17;1.30;;;0.60;;
19059;SDS011;9663;48.996;8.334;2024-03-02T13:35:47;1.98;;;0.80;;
19059;SDS011;9663;48.996;8.334;2024-03-02T13:38:17;2.00;;;0.80;;
19059;SDS011;9663;48.996;8.334;2024-03-02T13:40:44;2.60;;;0.90;;
19059;SDS011;9663;48.996;8.334;2024-03-02T13:43:11;2.42;;;0.82;;
19059;SDS011;9663;48.996;8.334;2024-03-02T13:45:37;1.58;;;0.70;;
19059;SDS011;9663;48.996;8.334;2024-03-02T13:48:04;1.35;;;0.60;;
19059;SDS011;9663;48.996;8.334;2024-03-02T13:50:30;1.70;;;0.70;;
19059;SDS011;9663;48.996;8.334;2024-03-02T13:52:56;1.65;;;0.70;;
19059;SDS011;9663;48.996;8.334;2024-03-02T13:55:22;2.35;;;0.80;;
19059;SDS011;9663;48.996;8.334;2024-03-02T13:57:47;1.88;;;0.68;;
19059;SDS011;9663;48.996;8.334;2024-03-02T14:00:15;1.80;;;0.70;;
19059;SDS011;9663;48.996;8.334;2024-03-02T14:02:42;2.85;;;0.75;;
19059;SDS011;9663;48.996;8.334;2024-03-02T14:05:08;2.20;;;0.80;;
19059;SDS011;9663;48.996;8.334;2024-03-02T14:07:37;2.03;;;0.83;;
19059;SDS011;9663;48.996;8.334;2024-03-02T14:10:03;2.25;;;0.80;;
19059;SDS011;9663;48.996;8.334;2024-03-02T14:12:29;1.90;;;0.80;;
19059;SDS011;9663;48.996;8.334;2024-03-02T14:14:55;1.67;;;0.70;;
19059;SDS011;9663;48.996;8.334;2024-03-02T14:17:23;2.47;;;0.90;;
19059;SDS011;9663;48.996;8.334;2024-03-02T14:19:50;2.00;;;0.77;;
19059;SDS011;9663;48.996;8.334;2024-03-02T14:22:17;1.63;;;0.80;;
19059;SDS011;9663;48.996;8.334;2024-03-02T14:24:42;1.85;;;0.73;;
19059;SDS011;9663;48.996;8.334;2024-03-02T14:27:09;2.13;;;0.75;;
19059;SDS011;9663;48.996;8.334;2024-03-02T14:29:34;2.40;;;0.90;;
19059;SDS011;9663;48.996;8.334;2024-03-02T14:32:02;1.33;;;0.60;;
19059;SDS011;9663;48.996;8.334;2024-03-02T14:34:29;2.20;;;0.70;;
19059;SDS011;9663;48.996;8.334;2024-03-02T14:36:54;1.58;;;0.60;;
19059;SDS011;9663;48.996;8.334;2024-03-02T14:39:20;2.65;;;0.93;;
19059;SDS011;9663;48.996;8.334;2024-03-02T14:41:46;1.80;;;0.77;;
19059;SDS011;9663;48.996;8.334;2024-03-02T14:44:12;3.35;;;0.90;;
19059;SDS011;9663;48.996;8.334;2024-03-02T14:46:38;2.22;;;0.80;;
19059;SDS011;9663;48.996;8.334;2024-03-02T14:49:04;2.03;;;0.80;;
19059;SDS011;9663;48.996;8.334;2024-03-02T14:51:30;2.55;;;0.93;;
19059;SDS011;9663;48.996;8.334;2024-03-02T14:53:55;1.73;;;0.70;;
19059;SDS011;9663;48.996;8.334;2024-03-02T14:56:21;1.45;;;0.63;;
19059;SDS011;9663;48.996;8.334;2024-03-02T14:58:47;1.58;;;0.70;;
19059;SDS011;9663;48.996;8.334;2024-03-02T15:01:13;2.60;;;0.82;;
19059;SDS011;9663;48.996;8.334;2024-03-02T15:03:39;2.17;;;0.90;;
19059;SDS011;9663;48.996;8.334;2024-03-02T15:06:06;2.60;;;1.00;;
19059;SDS011;9663;48.996;8.334;2024-03-02T15:08:32;2.00;;;0.90;;
19059;SDS011;9663;48.996;8.334;2024-03-02T15:10:58;2.13;;;0.90;;